Terminal Aerodrome Forecast
Issued by NWS

Home | Current Version | Previous Version | Text Only | Print | Product List | Glossary On
Versions: 1 2 3 4 5 6 7 8 9 10 11 12 13 14 15 16 17 18 19 20 21 22 23 24
000
FTUS44 KCRP 310100 AAB
TAFALI
TAF AMD
KALI 310106Z 3101/3124 09010KT P6SM OVC014
     FM310800 09008KT 5SM BR BKN008 OVC014
     FM311600 12010KT P6SM BKN015 OVC040
     FM311900 15016G23KT P6SM SCT025 OVC120=

USA.gov is the U.S. government's official web portal to all federal, state and local government web resources and services.